createdAt,value
2023-02-13T00:01:12.289Z,3.90
2023-02-13T00:03:40.244Z,3.90
2023-02-13T00:06:10.548Z,3.80
2023-02-13T00:08:38.689Z,3.80
2023-02-13T00:11:07.231Z,3.90
2023-02-13T00:13:36.138Z,3.90
2023-02-13T00:16:06.093Z,3.90
2023-02-13T00:18:37.985Z,3.90
2023-02-13T00:21:10.639Z,3.90
2023-02-13T00:23:40.611Z,3.90
2023-02-13T00:26:12.393Z,3.90
2023-02-13T00:28:45.675Z,3.90
2023-02-13T00:31:17.429Z,3.90
2023-02-13T00:33:46.049Z,3.90
2023-02-13T00:36:19.342Z,4.00
2023-02-13T00:38:48.724Z,4.00
2023-02-13T00:41:19.280Z,4.00
2023-02-13T00:43:48.945Z,4.00
2023-02-13T00:46:18.392Z,3.90
2023-02-13T00:48:47.285Z,4.00
2023-02-13T00:51:16.787Z,4.10
2023-02-13T00:53:44.738Z,4.00
2023-02-13T00:56:12.748Z,4.00
2023-02-13T00:58:40.909Z,3.90
2023-02-13T01:01:08.941Z,3.90
2023-02-13T01:03:36.984Z,3.90
2023-02-13T01:06:05.963Z,3.90
2023-02-13T01:08:36.351Z,3.90
2023-02-13T01:11:04.297Z,3.90
2023-02-13T01:13:32.238Z,3.90
2023-02-13T01:16:00.514Z,4.00
2023-02-13T01:18:29.012Z,4.00
2023-02-13T01:21:00.308Z,4.00
2023-02-13T01:23:32.805Z,3.90
2023-02-13T01:26:04.752Z,4.00
2023-02-13T01:28:32.729Z,4.00
2023-02-13T01:31:01.496Z,3.90
2023-02-13T01:33:30.661Z,3.90
2023-02-13T01:36:00.173Z,3.90
2023-02-13T01:38:29.135Z,3.90
2023-02-13T01:40:57.351Z,3.90
2023-02-13T01:43:45.315Z,3.90
2023-02-13T01:46:18.389Z,3.90
2023-02-13T01:48:49.108Z,3.90
2023-02-13T01:51:23.494Z,3.90
2023-02-13T01:53:58.424Z,3.90
2023-02-13T01:56:32.559Z,3.90
2023-02-13T01:59:06.630Z,4.20
2023-02-13T02:01:35.041Z,4.40
2023-02-13T02:04:11.607Z,4.50
2023-02-13T02:06:45.141Z,4.50
2023-02-13T02:09:20.262Z,4.50
2023-02-13T02:12:00.116Z,4.40
2023-02-13T02:14:29.999Z,4.40
2023-02-13T02:16:58.620Z,4.30
2023-02-13T02:19:39.264Z,4.20
2023-02-13T02:22:45.616Z,4.20
2023-02-13T02:25:48.170Z,4.20
2023-02-13T02:29:17.491Z,4.10
2023-02-13T02:32:22.312Z,4.00
2023-02-13T02:35:03.460Z,4.00
2023-02-13T02:37:52.275Z,3.90
2023-02-13T02:40:29.474Z,4.00
2023-02-13T02:43:16.003Z,3.90
2023-02-13T02:45:57.580Z,3.90
2023-02-13T02:48:53.773Z,3.90
2023-02-13T02:51:34.114Z,3.90
2023-02-13T02:54:26.295Z,3.80
2023-02-13T02:57:00.122Z,3.80
2023-02-13T02:59:50.140Z,3.80
2023-02-13T03:02:42.598Z,3.80
2023-02-13T03:05:40.128Z,3.70
2023-02-13T03:08:08.519Z,3.70
2023-02-13T03:10:57.222Z,3.60
2023-02-13T03:13:42.766Z,3.60
2023-02-13T03:16:44.637Z,3.60
2023-02-13T03:19:38.791Z,3.50
2023-02-13T03:22:23.596Z,3.50
2023-02-13T03:25:01.376Z,3.40
2023-02-13T03:27:59.523Z,3.30
2023-02-13T03:30:41.114Z,3.30
2023-02-13T03:33:28.803Z,3.20
2023-02-13T03:36:26.383Z,3.10
2023-02-13T03:39:08.303Z,3.00
2023-02-13T03:41:42.440Z,3.00
2023-02-13T03:44:19.619Z,3.00
2023-02-13T03:46:52.273Z,2.90
2023-02-13T03:49:43.672Z,2.80
2023-02-13T03:52:20.266Z,2.80
2023-02-13T03:55:14.369Z,2.80
2023-02-13T03:58:04.093Z,2.70
2023-02-13T04:00:41.306Z,2.70
2023-02-13T04:03:17.163Z,2.80
2023-02-13T04:05:51.028Z,2.80
2023-02-13T04:08:19.164Z,2.70
2023-02-13T04:10:58.352Z,2.70
2023-02-13T04:13:35.072Z,2.70
2023-02-13T04:16:09.256Z,2.70
2023-02-13T04:18:40.016Z,2.70
2023-02-13T04:21:09.006Z,2.70
2023-02-13T04:23:37.302Z,2.70
2023-02-13T04:26:13.311Z,2.70
2023-02-13T04:28:41.291Z,2.70
2023-02-13T04:31:09.378Z,2.60
2023-02-13T04:33:37.460Z,2.60
2023-02-13T04:36:06.299Z,2.60
2023-02-13T04:38:34.292Z,2.50
2023-02-13T04:41:02.200Z,2.50
2023-02-13T04:43:31.456Z,2.40
2023-02-13T04:45:59.457Z,2.40
2023-02-13T04:48:27.432Z,2.30
2023-02-13T04:50:55.763Z,2.30
2023-02-13T04:53:23.974Z,2.30
2023-02-13T04:55:52.514Z,2.30
2023-02-13T04:58:20.541Z,2.30
2023-02-13T05:00:49.770Z,2.30
2023-02-13T05:03:17.736Z,2.20
2023-02-13T05:05:45.770Z,2.20
2023-02-13T05:08:13.646Z,2.20
2023-02-13T05:10:41.627Z,2.10
2023-02-13T05:13:09.717Z,2.10
2023-02-13T05:15:37.697Z,2.10
2023-02-13T05:18:07.241Z,2.00
2023-02-13T05:20:35.158Z,2.10
2023-02-13T05:23:20.681Z,2.00
2023-02-13T05:25:48.696Z,2.00
2023-02-13T05:28:35.206Z,2.00
2023-02-13T05:31:03.438Z,2.00
2023-02-13T05:33:32.855Z,1.90
2023-02-13T05:36:00.810Z,1.80
2023-02-13T05:38:28.771Z,1.70
2023-02-13T05:40:59.534Z,1.70
2023-02-13T05:43:27.666Z,1.70
2023-02-13T05:46:04.015Z,1.70
2023-02-13T05:48:33.745Z,1.70
2023-02-13T05:51:01.950Z,1.90
2023-02-13T05:53:30.638Z,1.90
2023-02-13T05:55:58.626Z,1.80
2023-02-13T05:58:26.541Z,1.80
2023-02-13T06:00:58.625Z,1.90
2023-02-13T06:03:28.256Z,1.80
2023-02-13T06:05:58.255Z,1.90
2023-02-13T06:08:26.995Z,1.90
2023-02-13T06:10:54.984Z,2.10
2023-02-13T06:13:22.841Z,2.30
2023-02-13T06:15:51.721Z,2.60
2023-02-13T06:18:19.711Z,2.90
2023-02-13T06:20:47.765Z,3.20
2023-02-13T06:23:17.413Z,3.40
2023-02-13T06:25:45.325Z,3.30
2023-02-13T06:28:13.364Z,3.60
2023-02-13T06:30:41.448Z,3.70
2023-02-13T06:33:09.484Z,3.70
2023-02-13T06:35:37.633Z,3.70
2023-02-13T06:38:05.534Z,3.60
2023-02-13T06:40:34.779Z,3.20
2023-02-13T06:43:02.808Z,3.00
2023-02-13T06:45:30.737Z,2.90
2023-02-13T06:47:58.636Z,2.60
2023-02-13T06:50:26.811Z,2.50
2023-02-13T06:52:54.745Z,2.30
2023-02-13T06:55:22.662Z,2.20
2023-02-13T06:57:51.896Z,1.90
2023-02-13T07:00:21.719Z,1.80
2023-02-13T07:02:49.715Z,1.70
2023-02-13T07:05:17.788Z,1.60
2023-02-13T07:07:45.720Z,1.60
2023-02-13T07:10:15.696Z,1.60
2023-02-13T07:12:47.274Z,1.60
2023-02-13T07:15:18.726Z,1.60
2023-02-13T07:17:46.719Z,1.60
2023-02-13T07:20:15.146Z,1.60
2023-02-13T07:22:43.062Z,1.60
2023-02-13T07:25:10.960Z,1.60
2023-02-13T07:27:38.893Z,1.70
2023-02-13T07:30:08.728Z,1.80
2023-02-13T07:32:37.991Z,1.80
2023-02-13T07:35:07.028Z,1.80
2023-02-13T07:37:34.899Z,1.80
2023-02-13T07:40:05.612Z,1.90
2023-02-13T07:42:35.269Z,1.80
2023-02-13T07:45:05.559Z,1.90
2023-02-13T07:47:35.159Z,2.00
2023-02-13T07:50:06.179Z,2.00
2023-02-13T07:52:34.099Z,2.00
2023-02-13T07:55:02.000Z,2.00
2023-02-13T07:57:31.504Z,2.00
2023-02-13T07:59:59.567Z,1.90
2023-02-13T08:02:27.447Z,2.00
2023-02-13T08:04:55.379Z,2.10
2023-02-13T08:07:24.668Z,2.10
2023-02-13T08:10:10.177Z,2.10
2023-02-13T08:12:38.231Z,2.10
2023-02-13T08:15:08.028Z,2.20
2023-02-13T08:17:36.045Z,2.20
2023-02-13T08:20:04.508Z,2.30
2023-02-13T08:22:33.745Z,2.40
2023-02-13T08:25:01.685Z,2.40
2023-02-13T08:27:30.363Z,2.50
2023-02-13T08:29:59.266Z,2.50
2023-02-13T08:32:27.574Z,2.60
2023-02-13T08:35:01.727Z,2.70
2023-02-13T08:37:29.696Z,2.70
2023-02-13T08:39:58.930Z,2.80
2023-02-13T08:42:26.928Z,2.90
2023-02-13T08:44:54.909Z,2.90
2023-02-13T08:47:22.870Z,3.00
2023-02-13T08:49:50.854Z,3.10
2023-02-13T08:52:18.789Z,3.20
2023-02-13T08:54:46.701Z,3.30
2023-02-13T08:57:16.034Z,3.40
2023-02-13T08:59:44.056Z,3.50
2023-02-13T09:02:13.037Z,3.60
2023-02-13T09:04:40.960Z,3.70
2023-02-13T09:07:09.115Z,3.80
2023-02-13T09:09:37.059Z,3.90
2023-02-13T09:12:05.606Z,3.90
2023-02-13T09:14:34.896Z,4.00
2023-02-13T09:17:03.051Z,4.10
2023-02-13T09:19:31.076Z,4.20
2023-02-13T09:21:59.011Z,4.30
2023-02-13T09:24:27.253Z,4.40
2023-02-13T09:26:56.631Z,4.50
2023-02-13T09:29:24.995Z,4.60
2023-02-13T09:31:54.581Z,4.70
2023-02-13T09:34:22.570Z,4.80
2023-02-13T09:36:53.694Z,4.90
2023-02-13T09:39:21.728Z,5.00
2023-02-13T09:41:54.573Z,5.10
2023-02-13T09:44:34.818Z,5.30
2023-02-13T09:47:10.966Z,5.30
2023-02-13T09:49:45.202Z,5.40
2023-02-13T09:52:13.445Z,5.60
2023-02-13T09:54:42.058Z,5.70
2023-02-13T09:57:20.738Z,5.70
2023-02-13T10:00:03.728Z,5.80
2023-02-13T10:02:51.672Z,5.90
2023-02-13T10:05:41.127Z,6.00
2023-02-13T10:08:24.934Z,6.10
2023-02-13T10:11:01.584Z,6.20
2023-02-13T10:13:51.630Z,6.30
2023-02-13T10:16:24.487Z,6.40
2023-02-13T10:19:01.918Z,6.50
2023-02-13T10:21:36.533Z,6.50
2023-02-13T10:24:11.788Z,6.70
2023-02-13T10:26:45.459Z,6.80
2023-02-13T10:29:39.726Z,6.90
2023-02-13T10:32:12.251Z,6.90
2023-02-13T10:34:46.669Z,7.00
2023-02-13T10:37:18.891Z,7.20
2023-02-13T10:39:50.293Z,7.20
2023-02-13T10:42:24.279Z,7.30
2023-02-13T10:45:06.744Z,7.40
2023-02-13T10:47:57.272Z,7.40
2023-02-13T10:50:37.559Z,7.50
2023-02-13T10:53:19.408Z,7.60
2023-02-13T10:56:25.226Z,7.70
2023-02-13T10:59:26.778Z,7.80
2023-02-13T11:02:01.492Z,7.90
2023-02-13T11:04:30.892Z,8.00
2023-02-13T11:07:03.108Z,8.10
2023-02-13T11:09:40.222Z,8.20
2023-02-13T11:12:27.855Z,8.20
2023-02-13T11:14:59.018Z,8.30
2023-02-13T11:17:30.628Z,8.30
2023-02-13T11:20:01.920Z,8.40
2023-02-13T11:22:35.561Z,8.50
2023-02-13T11:25:17.976Z,8.60
2023-02-13T11:27:48.635Z,8.70
2023-02-13T11:30:34.934Z,8.70
2023-02-13T11:33:06.608Z,8.80
2023-02-13T11:35:37.366Z,8.90
2023-02-13T11:38:25.349Z,8.90
2023-02-13T11:41:06.902Z,9.00
2023-02-13T11:43:38.899Z,9.10
2023-02-13T11:46:15.514Z,9.10
2023-02-13T11:48:56.916Z,9.20
2023-02-13T11:51:39.060Z,9.30
2023-02-13T11:54:30.683Z,9.30
2023-02-13T11:57:05.876Z,9.30
2023-02-13T11:59:42.654Z,9.40
2023-02-13T12:02:20.543Z,9.40
2023-02-13T12:04:51.361Z,9.30
2023-02-13T12:07:25.760Z,9.50
2023-02-13T12:10:03.673Z,9.80
2023-02-13T12:12:40.278Z,10.10
2023-02-13T12:15:19.932Z,10.10
2023-02-13T12:18:03.215Z,10.00
2023-02-13T12:20:41.794Z,9.80
2023-02-13T12:23:27.203Z,9.70
2023-02-13T12:26:21.923Z,9.90
2023-02-13T12:29:23.884Z,10.20
2023-02-13T12:32:15.394Z,10.10
2023-02-13T12:35:05.072Z,10.20
2023-02-13T12:38:04.251Z,10.40
2023-02-13T12:41:15.335Z,10.60
2023-02-13T12:44:25.983Z,11.10
2023-02-13T12:47:05.052Z,11.50
2023-02-13T12:50:02.688Z,11.70
2023-02-13T12:52:50.075Z,11.70
2023-02-13T12:55:44.313Z,12.10
2023-02-13T12:58:58.542Z,12.30
2023-02-13T13:02:09.346Z,12.20
2023-02-13T13:04:57.433Z,12.50
2023-02-13T13:07:49.017Z,12.80
2023-02-13T13:10:43.597Z,13.00
2023-02-13T13:13:32.785Z,12.90
2023-02-13T13:16:11.345Z,12.90
2023-02-13T13:18:55.959Z,12.90
2023-02-13T13:21:38.660Z,12.70
2023-02-13T13:24:24.090Z,12.70
2023-02-13T13:26:54.183Z,13.00
2023-02-13T13:29:30.458Z,13.00
2023-02-13T13:32:04.544Z,13.10
2023-02-13T13:34:36.184Z,13.00
2023-02-13T13:37:11.945Z,12.90
2023-02-13T13:39:52.370Z,13.00
2023-02-13T13:42:28.970Z,13.00
2023-02-13T13:45:29.584Z,13.20
2023-02-13T13:48:42.212Z,13.20
2023-02-13T13:51:15.519Z,13.40
2023-02-13T13:54:25.276Z,13.20
2023-02-13T13:57:12.555Z,13.00
2023-02-13T14:00:25.954Z,12.70
2023-02-13T14:03:34.381Z,12.40
2023-02-13T14:06:07.672Z,12.50
2023-02-13T14:09:39.846Z,12.60
2023-02-13T14:12:45.971Z,12.50
2023-02-13T14:15:51.091Z,12.30
2023-02-13T14:18:24.214Z,12.30
2023-02-13T14:20:55.503Z,12.20
2023-02-13T14:23:36.914Z,12.20
2023-02-13T14:26:36.186Z,12.10
2023-02-13T14:29:28.210Z,12.10
2023-02-13T14:32:08.024Z,12.20
2023-02-13T14:34:39.944Z,11.90
2023-02-13T14:37:29.718Z,11.70
2023-02-13T14:40:45.098Z,11.50
2023-02-13T14:43:37.841Z,11.30
2023-02-13T14:46:23.630Z,11.20
2023-02-13T14:48:59.091Z,11.00
2023-02-13T14:51:35.968Z,10.90
2023-02-13T14:54:20.363Z,10.70
2023-02-13T14:56:51.879Z,10.60
2023-02-13T14:59:27.010Z,10.70
2023-02-13T15:02:01.589Z,10.60
2023-02-13T15:04:36.817Z,10.60
2023-02-13T15:07:14.115Z,10.50
2023-02-13T15:09:49.276Z,10.40
2023-02-13T15:12:33.117Z,10.30
2023-02-13T15:15:05.683Z,10.20
2023-02-13T15:17:40.115Z,10.20
2023-02-13T15:20:24.187Z,10.20
2023-02-13T15:22:53.131Z,10.10
2023-02-13T15:25:27.078Z,10.10
2023-02-13T15:27:56.514Z,10.00
2023-02-13T15:30:28.467Z,9.90
2023-02-13T15:32:59.712Z,9.90
2023-02-13T15:35:31.907Z,9.80
2023-02-13T15:38:00.751Z,9.70
2023-02-13T15:40:32.029Z,9.70
2023-02-13T15:43:01.793Z,9.60
2023-02-13T15:45:31.732Z,9.60
2023-02-13T15:47:59.822Z,9.60
2023-02-13T15:50:33.222Z,9.60
2023-02-13T15:53:05.496Z,9.50
2023-02-13T15:55:36.568Z,9.50
2023-02-13T15:58:05.346Z,9.40
2023-02-13T16:00:37.469Z,9.40
2023-02-13T16:03:09.450Z,9.30
2023-02-13T16:05:41.745Z,9.20
2023-02-13T16:08:43.734Z,9.20
2023-02-13T16:11:30.410Z,9.10
2023-02-13T16:14:13.661Z,9.00
2023-02-13T16:16:52.335Z,9.00
2023-02-13T16:19:38.065Z,8.90
2023-02-13T16:22:26.903Z,8.80
2023-02-13T16:25:04.350Z,8.80
2023-02-13T16:27:32.760Z,8.70
2023-02-13T16:30:04.903Z,8.60
2023-02-13T16:32:38.208Z,8.60
2023-02-13T16:35:28.428Z,8.50
2023-02-13T16:38:00.440Z,8.50
2023-02-13T16:40:39.132Z,8.50
2023-02-13T16:43:36.652Z,8.40
2023-02-13T16:46:27.053Z,8.40
2023-02-13T16:49:21.682Z,8.40
2023-02-13T16:51:55.756Z,8.30
2023-02-13T16:54:31.478Z,8.20
2023-02-13T16:57:04.152Z,8.30
2023-02-13T16:59:53.009Z,8.20
2023-02-13T17:02:24.939Z,8.20
2023-02-13T17:04:57.569Z,8.10
2023-02-13T17:07:28.365Z,8.00
2023-02-13T17:10:00.636Z,7.80
2023-02-13T17:12:31.283Z,7.70
2023-02-13T17:15:00.823Z,7.70
2023-02-13T17:17:30.872Z,7.70
2023-02-13T17:20:00.839Z,7.70
2023-02-13T17:22:36.405Z,7.50
2023-02-13T17:25:09.490Z,7.50
2023-02-13T17:27:37.402Z,7.40
2023-02-13T17:30:07.073Z,7.40
2023-02-13T17:32:35.092Z,7.30
2023-02-13T17:35:04.584Z,7.20
2023-02-13T17:37:34.132Z,7.10
2023-02-13T17:40:02.126Z,7.00
2023-02-13T17:42:31.442Z,7.00
2023-02-13T17:45:00.134Z,7.00
2023-02-13T17:47:30.270Z,6.90
2023-02-13T17:50:08.850Z,6.90
2023-02-13T17:52:39.954Z,6.90
2023-02-13T17:55:18.535Z,6.90
2023-02-13T17:57:46.700Z,6.90
2023-02-13T18:00:15.855Z,6.90
2023-02-13T18:02:44.233Z,6.90
2023-02-13T18:05:12.396Z,7.00
2023-02-13T18:07:43.132Z,6.90
2023-02-13T18:10:15.523Z,6.70
2023-02-13T18:12:44.494Z,6.60
2023-02-13T18:15:13.127Z,6.60
2023-02-13T18:17:41.712Z,6.40
2023-02-13T18:20:14.427Z,6.20
2023-02-13T18:22:44.177Z,6.00
2023-02-13T18:25:13.876Z,5.90
2023-02-13T18:27:41.832Z,5.90
2023-02-13T18:30:14.036Z,6.00
2023-02-13T18:32:42.484Z,6.00
2023-02-13T18:35:11.256Z,5.90
2023-02-13T18:37:39.431Z,5.90
2023-02-13T18:40:10.716Z,5.80
2023-02-13T18:42:38.883Z,5.80
2023-02-13T18:45:07.972Z,5.70
2023-02-13T18:47:35.959Z,5.60
2023-02-13T18:50:04.068Z,5.70
2023-02-13T18:52:32.005Z,5.80
2023-02-13T18:55:00.007Z,5.60
2023-02-13T18:57:29.804Z,5.60
2023-02-13T18:59:57.721Z,5.40
2023-02-13T19:02:25.723Z,5.40
2023-02-13T19:04:53.643Z,5.30
2023-02-13T19:07:21.695Z,5.20
2023-02-13T19:09:49.745Z,5.00
2023-02-13T19:12:17.637Z,5.00
2023-02-13T19:14:47.814Z,5.00
2023-02-13T19:17:15.929Z,4.90
2023-02-13T19:19:46.319Z,4.70
2023-02-13T19:22:14.372Z,4.50
2023-02-13T19:24:42.488Z,4.40
2023-02-13T19:27:11.331Z,4.50
2023-02-13T19:29:39.288Z,4.40
2023-02-13T19:32:08.948Z,4.40
2023-02-13T19:34:37.124Z,4.50
2023-02-13T19:37:05.176Z,4.40
2023-02-13T19:39:33.831Z,4.20
2023-02-13T19:42:02.051Z,4.30
2023-02-13T19:44:30.188Z,4.30
2023-02-13T19:46:58.167Z,4.30
2023-02-13T19:49:27.426Z,4.40
2023-02-13T19:51:55.402Z,4.50
2023-02-13T19:54:23.294Z,4.50
2023-02-13T19:56:51.373Z,4.40
2023-02-13T19:59:19.269Z,4.30
2023-02-13T20:01:47.568Z,4.30
2023-02-13T20:04:15.563Z,4.30
2023-02-13T20:06:45.242Z,4.20
2023-02-13T20:09:14.968Z,4.20
2023-02-13T20:11:45.319Z,4.10
2023-02-13T20:14:15.392Z,4.10
2023-02-13T20:16:45.659Z,4.10
2023-02-13T20:19:14.392Z,4.10
2023-02-13T20:21:45.359Z,4.10
2023-02-13T20:24:13.845Z,4.10
2023-02-13T20:26:42.111Z,3.70
2023-02-13T20:29:10.578Z,3.70
2023-02-13T20:31:41.292Z,3.50
2023-02-13T20:34:10.028Z,3.60
2023-02-13T20:36:38.312Z,3.50
2023-02-13T20:39:08.950Z,3.50
2023-02-13T20:41:38.432Z,3.50
2023-02-13T20:44:08.965Z,3.50
2023-02-13T20:46:40.869Z,3.40
2023-02-13T20:49:11.015Z,3.40
2023-02-13T20:51:39.103Z,3.50
2023-02-13T20:54:08.329Z,3.60
2023-02-13T20:56:36.274Z,3.60
2023-02-13T20:59:05.329Z,3.50
2023-02-13T21:01:37.238Z,3.40
2023-02-13T21:04:05.193Z,3.40
2023-02-13T21:06:35.409Z,3.40
2023-02-13T21:09:06.918Z,3.40
2023-02-13T21:11:37.338Z,3.40
2023-02-13T21:14:06.256Z,3.30
2023-02-13T21:16:38.802Z,3.30
2023-02-13T21:19:10.607Z,3.30
2023-02-13T21:21:43.865Z,3.20
2023-02-13T21:24:16.007Z,3.10
2023-02-13T21:26:46.886Z,3.10
2023-02-13T21:29:14.928Z,3.20
2023-02-13T21:31:47.395Z,3.10
2023-02-13T21:34:18.081Z,3.10
2023-02-13T21:36:46.375Z,3.10
2023-02-13T21:39:16.396Z,3.00
2023-02-13T21:41:47.483Z,3.00
2023-02-13T21:44:17.603Z,3.10
2023-02-13T21:46:47.363Z,3.20
2023-02-13T21:49:18.362Z,3.20
2023-02-13T21:51:47.528Z,3.10
2023-02-13T21:54:15.756Z,3.00
2023-02-13T21:56:45.751Z,2.90
2023-02-13T21:59:16.681Z,2.80
2023-02-13T22:01:46.839Z,2.90
2023-02-13T22:04:15.263Z,2.90
2023-02-13T22:06:43.204Z,2.90
2023-02-13T22:09:13.748Z,2.90
2023-02-13T22:11:42.727Z,2.90
2023-02-13T22:14:17.099Z,2.90
2023-02-13T22:16:46.324Z,2.90
2023-02-13T22:19:16.935Z,3.00
2023-02-13T22:21:46.055Z,3.00
2023-02-13T22:24:14.638Z,3.10
2023-02-13T22:26:45.530Z,3.20
2023-02-13T22:29:18.350Z,3.20
2023-02-13T22:31:46.432Z,3.00
2023-02-13T22:34:14.718Z,3.00
2023-02-13T22:36:43.134Z,3.10
2023-02-13T22:39:12.879Z,3.20
2023-02-13T22:41:41.189Z,3.20
2023-02-13T22:44:09.402Z,3.00
2023-02-13T22:46:39.011Z,3.00
2023-02-13T22:49:06.975Z,2.90
2023-02-13T22:51:37.827Z,2.70
2023-02-13T22:54:07.146Z,2.60
2023-02-13T22:56:35.429Z,2.40
2023-02-13T22:59:03.696Z,2.30
2023-02-13T23:01:32.061Z,2.20
2023-02-13T23:04:01.384Z,2.20
2023-02-13T23:06:29.479Z,2.20
2023-02-13T23:08:58.203Z,2.20
2023-02-13T23:11:46.463Z,2.30
2023-02-13T23:14:15.916Z,2.20
2023-02-13T23:17:02.181Z,2.10
2023-02-13T23:19:32.418Z,2.10
2023-02-13T23:22:00.973Z,2.20
2023-02-13T23:24:29.953Z,2.20
2023-02-13T23:26:58.010Z,2.30
2023-02-13T23:29:26.828Z,2.20
2023-02-13T23:31:54.998Z,2.20
2023-02-13T23:34:23.534Z,2.20
2023-02-13T23:36:53.196Z,2.40
2023-02-13T23:39:21.484Z,2.40
2023-02-13T23:41:49.389Z,2.50
2023-02-13T23:44:17.324Z,2.40
2023-02-13T23:46:45.473Z,2.40
2023-02-13T23:49:13.414Z,2.40
2023-02-13T23:51:41.353Z,2.50
2023-02-13T23:54:15.215Z,2.50
2023-02-13T23:56:43.162Z,2.40
2023-02-13T23:59:11.171Z,2.40
